Schuyler, Nebraska
Current Conditions -  °F | °C
As of 3:15 PM on Saturday 22 Nov 2014 (Local Time) from KOLU Reporting Station
Clear Clear  
Wind Chill: 50°   Ceiling: Unl
Heat Index: 50°   Visibility: 10mi
Dew Point: 39°   Wind: 9mph
Humidity: 66%   Direction: 190°S
Pressure: 29.64"   Gusts: NA
Location:  41.45°N, 97.06°W
Report Text: KOLU 222115Z AUTO 19008KT 10SM CLR 10/04 A2964 RMK AO1
Loading
Personal Weather Stations






























Interactive Weather Map New forecast layout! Learn more

10-Day Weather Forecast

Advertisements
Track Severe Weather on mobile